createdAt,value
2023-04-09T00:01:52.273Z,99016.61
2023-04-09T00:04:20.255Z,99015.61
2023-04-09T00:06:48.518Z,99018.19
2023-04-09T00:09:16.813Z,99016.76
2023-04-09T00:11:44.696Z,99015.29
2023-04-09T00:14:12.663Z,99013.06
2023-04-09T00:16:41.027Z,99012.16
2023-04-09T00:19:09.048Z,99015.25
2023-04-09T00:21:37.242Z,99013.25
2023-04-09T00:24:05.382Z,99014.26
2023-04-09T00:26:33.300Z,99011.05
2023-04-09T00:29:01.516Z,99012.75
2023-04-09T00:31:29.428Z,99014.83
2023-04-09T00:33:59.451Z,99012.92
2023-04-09T00:36:27.659Z,99011.38
2023-04-09T00:38:55.698Z,99013.83
2023-04-09T00:41:23.604Z,99019.35
2023-04-09T00:43:51.414Z,99021.92
2023-04-09T00:46:19.410Z,99022.21
2023-04-09T00:48:47.501Z,99019.25
2023-04-09T00:51:15.698Z,99026.94
2023-04-09T00:53:44.150Z,99029.88
2023-04-09T00:56:13.605Z,99032.82
2023-04-09T00:58:42.028Z,99036.33
2023-04-09T01:01:10.032Z,99039.66
2023-04-09T01:04:38.833Z,99038.14
2023-04-09T01:08:19.928Z,99035.10
2023-04-09T01:11:40.892Z,99024.23
2023-04-09T01:14:28.674Z,99033.23
2023-04-09T01:17:05.129Z,99033.64
2023-04-09T01:19:46.220Z,99027.95
2023-04-09T01:22:56.322Z,99021.84
2023-04-09T01:25:45.748Z,99024.63
2023-04-09T01:28:27.610Z,99024.24
2023-04-09T01:31:07.891Z,99015.62
2023-04-09T01:33:39.250Z,99020.80
2023-04-09T01:36:08.471Z,99024.72
2023-04-09T01:38:42.467Z,99010.33
2023-04-09T01:41:12.514Z,99008.36
2023-04-09T01:43:44.409Z,99028.33
2023-04-09T01:46:16.140Z,99029.24
2023-04-09T01:48:45.304Z,99032.09
2023-04-09T01:51:16.924Z,99034.36
2023-04-09T01:53:48.237Z,99030.54
2023-04-09T01:56:16.321Z,99029.83
2023-04-09T01:58:46.861Z,99027.87
2023-04-09T02:01:37.150Z,99032.55
2023-04-09T02:04:18.055Z,99029.08
2023-04-09T02:07:01.479Z,99026.98
2023-04-09T02:09:32.000Z,99024.73
2023-04-09T02:12:04.405Z,99023.19
2023-04-09T02:14:33.752Z,99026.52
2023-04-09T02:17:04.723Z,99027.09
2023-04-09T02:19:47.221Z,99025.42
2023-04-09T02:22:19.327Z,99029.30
2023-04-09T02:24:47.671Z,99029.12
2023-04-09T02:27:16.452Z,99036.15
2023-04-09T02:29:45.878Z,99033.64
2023-04-09T02:32:18.519Z,99037.14
2023-04-09T02:34:48.312Z,99033.80
2023-04-09T02:37:19.831Z,99029.19
2023-04-09T02:39:48.597Z,99029.50
2023-04-09T02:42:19.107Z,99029.98
2023-04-09T02:44:47.982Z,99031.00
2023-04-09T02:47:16.664Z,99030.84
2023-04-09T02:49:50.783Z,99029.88
2023-04-09T02:52:20.484Z,99022.84
2023-04-09T02:54:48.600Z,99023.73
2023-04-09T02:57:16.818Z,99024.77
2023-04-09T02:59:46.157Z,99027.70
2023-04-09T03:02:15.698Z,99020.04
2023-04-09T03:04:43.983Z,99016.92
2023-04-09T03:07:12.417Z,99018.52
2023-04-09T03:09:40.591Z,99026.58
2023-04-09T03:12:11.946Z,99026.05
2023-04-09T03:14:40.150Z,99027.40
2023-04-09T03:17:11.366Z,99028.02
2023-04-09T03:19:42.194Z,99029.54
2023-04-09T03:22:14.870Z,99025.95
2023-04-09T03:24:42.985Z,99031.08
2023-04-09T03:27:11.381Z,99031.97
2023-04-09T03:29:39.624Z,99028.83
2023-04-09T03:32:08.628Z,99027.07
2023-04-09T03:34:36.854Z,99017.17
2023-04-09T03:37:08.209Z,99021.61
2023-04-09T03:39:37.491Z,99022.48
2023-04-09T03:42:05.692Z,99016.62
2023-04-09T03:44:42.069Z,99008.13
2023-04-09T03:47:14.126Z,99015.65
2023-04-09T03:49:42.391Z,99013.40
2023-04-09T03:52:35.798Z,99017.80
2023-04-09T03:55:07.528Z,99016.24
2023-04-09T03:57:38.434Z,99017.68
2023-04-09T04:00:13.194Z,99018.05
2023-04-09T04:03:12.489Z,99028.13
2023-04-09T04:06:07.796Z,99030.50
2023-04-09T04:08:44.924Z,99032.70
2023-04-09T04:11:15.957Z,99031.41
2023-04-09T04:13:46.990Z,99032.57
2023-04-09T04:16:17.548Z,99037.38
2023-04-09T04:18:48.215Z,99037.86
2023-04-09T04:21:20.172Z,99036.42
2023-04-09T04:23:56.042Z,99037.33
2023-04-09T04:26:27.238Z,99024.10
2023-04-09T04:28:56.820Z,99039.17
2023-04-09T04:31:45.136Z,99041.20
2023-04-09T04:34:17.585Z,99040.47
2023-04-09T04:36:49.275Z,99041.48
2023-04-09T04:39:17.974Z,99037.80
2023-04-09T04:41:54.223Z,99035.48
2023-04-09T04:44:25.039Z,99033.39
2023-04-09T04:46:58.732Z,99033.57
2023-04-09T04:49:30.495Z,99037.64
2023-04-09T04:52:00.042Z,99038.52
2023-04-09T04:54:28.950Z,99035.29
2023-04-09T04:56:58.190Z,99031.48
2023-04-09T04:59:55.860Z,99030.73
2023-04-09T05:02:24.456Z,99036.24
2023-04-09T05:05:17.620Z,99047.45
2023-04-09T05:07:51.879Z,99048.91
2023-04-09T05:10:21.913Z,99053.41
2023-04-09T05:12:50.369Z,99052.73
2023-04-09T05:15:25.204Z,99050.16
2023-04-09T05:17:54.778Z,99055.51
2023-04-09T05:20:27.752Z,99049.92
2023-04-09T05:23:12.845Z,99032.73
2023-04-09T05:25:50.342Z,99051.41
2023-04-09T05:28:26.344Z,99053.73
2023-04-09T05:31:04.186Z,99054.69
2023-04-09T05:33:37.986Z,99057.22
2023-04-09T05:36:19.582Z,99061.55
2023-04-09T05:38:49.119Z,99065.98
2023-04-09T05:41:17.566Z,99064.80
2023-04-09T05:44:07.620Z,99059.16
2023-04-09T05:46:36.941Z,99071.30
2023-04-09T05:49:06.417Z,99069.42
2023-04-09T05:51:38.501Z,99056.28
2023-04-09T05:54:07.269Z,99069.23
2023-04-09T05:56:37.637Z,99072.14
2023-04-09T05:59:07.495Z,99073.17
2023-04-09T06:01:42.897Z,99079.05
2023-04-09T06:04:12.423Z,99080.58
2023-04-09T06:06:48.350Z,99077.59
2023-04-09T06:09:19.220Z,99077.14
2023-04-09T06:11:47.743Z,99078.61
2023-04-09T06:14:18.288Z,99077.46
2023-04-09T06:16:47.239Z,99084.50
2023-04-09T06:19:16.894Z,99080.72
2023-04-09T06:21:47.258Z,99082.71
2023-04-09T06:24:17.873Z,99082.80
2023-04-09T06:26:47.321Z,99080.61
2023-04-09T06:29:18.484Z,99080.86
2023-04-09T06:31:50.081Z,99085.65
2023-04-09T06:34:19.529Z,99089.10
2023-04-09T06:36:47.861Z,99089.44
2023-04-09T06:39:19.650Z,99094.59
2023-04-09T06:41:49.553Z,99094.05
2023-04-09T06:44:37.129Z,99099.14
2023-04-09T06:47:05.603Z,99104.55
2023-04-09T06:49:33.915Z,99107.27
2023-04-09T06:52:07.604Z,99106.88
2023-04-09T06:54:35.982Z,99107.10
2023-04-09T06:57:10.060Z,99091.89
2023-04-09T06:59:39.813Z,99111.15
2023-04-09T07:02:08.303Z,99109.63
2023-04-09T07:04:36.705Z,99113.35
2023-04-09T07:07:09.422Z,99112.13
2023-04-09T07:09:40.100Z,99099.39
2023-04-09T07:12:08.330Z,99108.13
2023-04-09T07:14:36.369Z,99110.85
2023-04-09T07:17:04.324Z,99111.20
2023-04-09T07:19:32.613Z,99113.44
2023-04-09T07:22:01.957Z,99117.93
2023-04-09T07:24:30.180Z,99119.34
2023-04-09T07:26:58.388Z,99118.41
2023-04-09T07:29:26.461Z,99117.92
2023-04-09T07:31:54.757Z,99123.04
2023-04-09T07:34:23.014Z,99120.13
2023-04-09T07:36:51.561Z,99120.66
2023-04-09T07:39:23.556Z,99122.88
2023-04-09T07:41:52.893Z,99121.77
2023-04-09T07:44:21.290Z,99120.16
2023-04-09T07:46:49.467Z,99118.90
2023-04-09T07:49:19.208Z,99112.64
2023-04-09T07:51:51.113Z,99121.70
2023-04-09T07:54:21.738Z,99123.23
2023-04-09T07:56:52.855Z,99121.89
2023-04-09T07:59:25.552Z,99127.70
2023-04-09T08:02:07.508Z,99128.13
2023-04-09T08:04:41.524Z,99127.73
2023-04-09T08:07:11.053Z,99116.83
2023-04-09T08:09:42.371Z,99127.75
2023-04-09T08:12:13.521Z,99127.75
2023-04-09T08:15:05.329Z,99128.92
2023-04-09T08:17:37.497Z,99133.73
2023-04-09T08:20:17.309Z,99131.02
2023-04-09T08:22:50.204Z,99132.45
2023-04-09T08:25:18.633Z,99134.59
2023-04-09T08:27:47.254Z,99136.33
2023-04-09T08:30:18.861Z,99139.09
2023-04-09T08:32:53.387Z,99136.01
2023-04-09T08:35:25.436Z,99146.68
2023-04-09T08:37:55.704Z,99147.61
2023-04-09T08:40:24.601Z,99145.45
2023-04-09T08:42:58.589Z,99153.42
2023-04-09T08:45:30.034Z,99152.05
2023-04-09T08:48:06.102Z,99152.59
2023-04-09T08:50:34.798Z,99153.70
2023-04-09T08:53:05.083Z,99149.05
2023-04-09T08:55:35.139Z,99150.96
2023-04-09T08:58:10.729Z,99148.75
2023-04-09T09:00:50.689Z,99147.77
2023-04-09T09:03:23.473Z,99146.45
2023-04-09T09:05:51.901Z,99149.84
2023-04-09T09:08:34.549Z,99154.14
2023-04-09T09:11:05.218Z,99154.36
2023-04-09T09:13:43.989Z,99153.13
2023-04-09T09:16:23.309Z,99149.62
2023-04-09T09:18:53.416Z,99147.55
2023-04-09T09:21:31.271Z,99153.41
2023-04-09T09:23:59.565Z,99145.70
2023-04-09T09:26:30.262Z,99153.21
2023-04-09T09:29:06.063Z,99148.77
2023-04-09T09:34:30.925Z,99148.80
2023-04-09T09:36:59.230Z,99146.20
2023-04-09T09:39:46.810Z,99145.24
2023-04-09T09:42:18.841Z,99150.54
2023-04-09T09:44:48.245Z,99151.13
2023-04-09T09:47:19.330Z,99153.75
2023-04-09T09:49:50.509Z,99154.02
2023-04-09T09:52:31.866Z,99151.59
2023-04-09T09:55:05.741Z,99132.30
2023-04-09T09:57:39.551Z,99152.65
2023-04-09T10:00:17.275Z,99152.46
2023-04-09T10:03:12.386Z,99150.39
2023-04-09T10:05:42.455Z,99146.90
2023-04-09T10:08:17.619Z,99147.19
2023-04-09T10:10:47.070Z,99147.36
2023-04-09T10:13:27.299Z,99139.50
2023-04-09T10:16:01.984Z,99141.96
2023-04-09T10:18:35.004Z,99144.95
2023-04-09T10:21:16.567Z,99142.08
2023-04-09T10:23:57.572Z,99140.89
2023-04-09T10:26:28.051Z,99112.30
2023-04-09T10:29:16.579Z,99140.46
2023-04-09T10:31:51.784Z,99136.35
2023-04-09T10:34:28.568Z,99130.61
2023-04-09T10:37:03.706Z,99130.17
2023-04-09T10:39:33.373Z,99127.27
2023-04-09T10:42:16.766Z,99127.80
2023-04-09T10:45:05.818Z,99121.42
2023-04-09T10:47:37.296Z,99125.25
2023-04-09T10:50:32.045Z,99126.08
2023-04-09T10:53:00.958Z,99125.77
2023-04-09T10:55:57.368Z,99126.27
2023-04-09T10:58:45.093Z,99122.20
2023-04-09T11:04:12.674Z,99121.27
2023-04-09T11:06:45.618Z,99121.46
2023-04-09T11:09:19.780Z,99125.42
2023-04-09T11:11:56.679Z,99123.79
2023-04-09T11:14:28.211Z,99122.82
2023-04-09T11:17:00.224Z,99124.47
2023-04-09T11:19:36.077Z,99120.04
2023-04-09T11:22:07.317Z,99121.21
2023-04-09T11:24:50.081Z,99121.70
2023-04-09T11:27:23.065Z,99124.21
2023-04-09T11:29:59.846Z,99119.27
2023-04-09T11:32:38.261Z,99111.70
2023-04-09T11:35:22.784Z,99122.64
2023-04-09T11:37:55.261Z,99123.66
2023-04-09T11:40:30.334Z,99125.00
2023-04-09T11:43:08.592Z,99121.45
2023-04-09T11:45:37.282Z,99120.05
2023-04-09T11:48:13.901Z,99119.79
2023-04-09T11:50:46.838Z,99119.47
2023-04-09T11:53:28.058Z,99117.34
2023-04-09T11:56:01.131Z,99120.73
2023-04-09T11:58:48.469Z,99124.21
2023-04-09T12:01:53.243Z,99118.30
2023-04-09T12:04:25.869Z,99118.78
2023-04-09T12:07:10.525Z,99119.95
2023-04-09T12:09:49.002Z,99123.52
2023-04-09T12:12:24.647Z,99100.89
2023-04-09T12:15:12.056Z,99100.56
2023-04-09T12:17:47.833Z,99112.61
2023-04-09T12:20:32.526Z,99120.04
2023-04-09T12:23:28.899Z,99124.21
2023-04-09T12:26:06.750Z,99115.19
2023-04-09T12:28:38.759Z,99121.35
2023-04-09T12:31:11.192Z,99110.69
2023-04-09T12:33:43.065Z,99115.99
2023-04-09T12:36:15.247Z,99110.16
2023-04-09T12:38:48.132Z,99111.75
2023-04-09T12:41:17.283Z,99106.73
2023-04-09T12:43:48.385Z,99108.76
2023-04-09T12:46:30.520Z,99108.77
2023-04-09T12:48:58.880Z,99105.32
2023-04-09T12:51:29.466Z,99105.72
2023-04-09T12:54:06.018Z,99106.74
2023-04-09T12:56:39.535Z,99092.34
2023-04-09T12:59:07.930Z,99099.50
2023-04-09T13:01:40.759Z,99095.31
2023-04-09T13:04:18.746Z,99093.44
2023-04-09T13:06:50.530Z,99093.47
2023-04-09T13:09:24.962Z,99095.18
2023-04-09T13:11:55.285Z,99097.67
2023-04-09T13:14:25.681Z,99093.96
2023-04-09T13:16:56.643Z,99092.52
2023-04-09T13:19:30.793Z,99090.21
2023-04-09T13:22:03.857Z,99090.42
2023-04-09T13:24:41.839Z,99084.86
2023-04-09T13:27:30.787Z,99083.21
2023-04-09T13:30:17.803Z,99084.45
2023-04-09T13:33:16.480Z,99088.08
2023-04-09T13:35:53.081Z,99078.17
2023-04-09T13:38:31.341Z,99079.52
2023-04-09T13:41:14.016Z,99081.31
2023-04-09T13:43:48.551Z,99080.83
2023-04-09T13:46:17.010Z,99079.44
2023-04-09T13:48:47.644Z,99078.98
2023-04-09T13:51:22.864Z,99079.81
2023-04-09T13:54:13.078Z,99078.11
2023-04-09T13:56:41.636Z,99085.96
2023-04-09T13:59:10.011Z,99089.23
2023-04-09T14:01:38.396Z,99102.79
2023-04-09T14:04:07.841Z,99096.11
2023-04-09T14:06:36.185Z,99094.54
2023-04-09T14:09:04.457Z,99095.93
2023-04-09T14:11:38.365Z,99099.91
2023-04-09T14:14:08.295Z,99103.55
2023-04-09T14:16:38.906Z,99114.38
2023-04-09T14:19:12.195Z,99112.65
2023-04-09T14:21:40.732Z,99123.45
2023-04-09T14:24:13.138Z,99127.09
2023-04-09T14:26:45.006Z,99124.67
2023-04-09T14:29:13.380Z,99108.85
2023-04-09T14:31:43.066Z,99089.96
2023-04-09T14:34:11.482Z,99075.97
2023-04-09T14:36:39.703Z,99072.63
2023-04-09T14:39:07.922Z,99070.26
2023-04-09T14:41:36.888Z,99071.63
2023-04-09T14:44:05.154Z,99073.86
2023-04-09T14:46:33.371Z,99069.41
2023-04-09T14:49:03.821Z,99075.61
2023-04-09T14:51:32.374Z,99077.71
2023-04-09T14:54:01.819Z,99072.09
2023-04-09T14:56:30.061Z,99076.25
2023-04-09T14:58:58.156Z,99074.67
2023-04-09T15:01:27.451Z,99073.32
2023-04-09T15:03:58.374Z,99076.48
2023-04-09T15:06:28.024Z,99071.17
2023-04-09T15:08:56.201Z,99072.63
2023-04-09T15:11:24.309Z,99071.67
2023-04-09T15:13:52.382Z,99069.29
2023-04-09T15:16:24.466Z,99069.63
2023-04-09T15:18:57.745Z,99067.89
2023-04-09T15:21:27.274Z,99066.52
2023-04-09T15:23:59.042Z,99056.75
2023-04-09T15:26:27.572Z,99066.83
2023-04-09T15:29:06.728Z,99062.89
2023-04-09T15:31:35.130Z,99060.04
2023-04-09T15:34:03.502Z,99070.86
2023-04-09T15:36:35.334Z,99072.85
2023-04-09T15:39:05.746Z,99076.63
2023-04-09T15:41:33.992Z,99073.81
2023-04-09T15:44:04.597Z,99074.60
2023-04-09T15:46:32.726Z,99075.65
2023-04-09T15:49:01.113Z,99066.98
2023-04-09T15:51:29.294Z,99078.67
2023-04-09T15:53:58.530Z,99076.20
2023-04-09T15:56:26.564Z,99077.52
2023-04-09T15:58:55.194Z,99075.36
2023-04-09T16:01:23.591Z,99078.34
2023-04-09T16:03:52.449Z,99085.84
2023-04-09T16:06:21.287Z,99086.05
2023-04-09T16:08:51.575Z,99081.95
2023-04-09T16:11:20.314Z,99086.27
2023-04-09T16:13:48.366Z,99087.48
2023-04-09T16:16:18.975Z,99089.79
2023-04-09T16:18:47.826Z,99086.23
2023-04-09T16:21:16.714Z,99090.70
2023-04-09T16:23:44.986Z,99088.10
2023-04-09T16:26:13.191Z,99087.27
2023-04-09T16:28:42.808Z,99088.68
2023-04-09T16:31:12.342Z,99089.42
2023-04-09T16:33:42.707Z,99089.47
2023-04-09T16:36:12.105Z,99089.45
2023-04-09T16:38:40.544Z,99091.77
2023-04-09T16:41:13.980Z,99096.29
2023-04-09T16:43:42.478Z,99093.16
2023-04-09T16:46:11.000Z,99101.65
2023-04-09T16:48:43.447Z,99101.72
2023-04-09T16:51:11.906Z,99100.88
2023-04-09T16:53:42.413Z,99101.21
2023-04-09T16:56:10.853Z,99100.64
2023-04-09T16:58:39.045Z,99098.25
2023-04-09T17:01:08.008Z,99100.98
2023-04-09T17:03:36.608Z,99102.75
2023-04-09T17:06:05.780Z,99103.02
2023-04-09T17:08:38.383Z,99106.42
2023-04-09T17:11:06.878Z,99107.17
2023-04-09T17:13:36.744Z,99107.79
2023-04-09T17:16:09.034Z,99107.56
2023-04-09T17:18:38.030Z,99109.60
2023-04-09T17:21:07.021Z,99112.04
2023-04-09T17:23:36.205Z,99109.96
2023-04-09T17:26:05.915Z,99109.27
2023-04-09T17:28:34.324Z,99111.67
2023-04-09T17:31:03.053Z,99113.17
2023-04-09T17:33:33.999Z,99117.52
2023-04-09T17:36:05.218Z,99119.52
2023-04-09T17:38:40.889Z,99122.26
2023-04-09T17:41:11.556Z,99124.24
2023-04-09T17:43:39.708Z,99122.61
2023-04-09T17:46:09.163Z,99129.59
2023-04-09T17:48:37.644Z,99129.88
2023-04-09T17:51:08.675Z,99133.39
2023-04-09T17:53:36.963Z,99133.01
2023-04-09T17:56:07.642Z,99134.48
2023-04-09T17:58:36.017Z,99138.25
2023-04-09T18:01:07.785Z,99138.64
2023-04-09T18:03:39.030Z,99142.77
2023-04-09T18:06:08.203Z,99143.35
2023-04-09T18:08:39.025Z,99146.44
2023-04-09T18:11:11.888Z,99146.70
2023-04-09T18:13:41.540Z,99152.64
2023-04-09T18:16:17.692Z,99155.02
2023-04-09T18:18:48.941Z,99160.38
2023-04-09T18:21:19.498Z,99162.00
2023-04-09T18:23:49.613Z,99160.59
2023-04-09T18:26:17.919Z,99162.86
2023-04-09T18:28:46.166Z,99161.52
2023-04-09T18:31:14.331Z,99162.56
2023-04-09T18:33:42.552Z,99163.40
2023-04-09T18:36:11.107Z,99168.68
2023-04-09T18:38:39.714Z,99167.80
2023-04-09T18:41:08.433Z,99172.66
2023-04-09T18:43:37.926Z,99175.13
2023-04-09T18:46:08.471Z,99175.60
2023-04-09T18:48:40.410Z,99180.34
2023-04-09T18:51:09.745Z,99177.23
2023-04-09T18:53:37.929Z,99182.23
2023-04-09T18:56:09.539Z,99179.21
2023-04-09T18:58:40.138Z,99185.11
2023-04-09T19:01:16.748Z,99185.67
2023-04-09T19:03:56.110Z,99182.48
2023-04-09T19:06:27.884Z,99181.73
2023-04-09T19:08:59.181Z,99176.98
2023-04-09T19:11:38.836Z,99183.17
2023-04-09T19:14:09.953Z,99166.36
2023-04-09T19:16:38.653Z,99180.27
2023-04-09T19:19:09.393Z,99184.16
2023-04-09T19:21:45.533Z,99181.88
2023-04-09T19:24:14.133Z,99171.92
2023-04-09T19:26:45.688Z,99159.14
2023-04-09T19:29:15.513Z,99181.05
2023-04-09T19:31:44.244Z,99163.99
2023-04-09T19:34:16.759Z,99180.50
2023-04-09T19:36:48.548Z,99185.30
2023-04-09T19:39:19.068Z,99188.29
2023-04-09T19:41:53.368Z,99194.14
2023-04-09T19:44:23.875Z,99179.98
2023-04-09T19:46:52.243Z,99193.98
2023-04-09T19:49:34.007Z,99177.61
2023-04-09T19:52:08.225Z,99196.02
2023-04-09T19:54:37.901Z,99184.46
2023-04-09T19:57:09.519Z,99197.61
2023-04-09T19:59:39.966Z,99191.70
2023-04-09T20:02:16.427Z,99197.27
2023-04-09T20:04:57.423Z,99193.33
2023-04-09T20:07:27.418Z,99199.36
2023-04-09T20:09:56.363Z,99197.16
2023-04-09T20:12:29.436Z,99194.80
2023-04-09T20:14:58.121Z,99189.70
2023-04-09T20:17:26.827Z,99194.87
2023-04-09T20:20:22.363Z,99191.39
2023-04-09T20:22:56.769Z,99198.88
2023-04-09T20:25:25.757Z,99200.98
2023-04-09T20:27:54.949Z,99197.90
2023-04-09T20:30:25.431Z,99197.83
2023-04-09T20:32:53.711Z,99202.11
2023-04-09T20:35:23.909Z,99203.65
2023-04-09T20:37:55.216Z,99199.92
2023-04-09T20:40:24.618Z,99202.33
2023-04-09T20:42:53.107Z,99202.66
2023-04-09T20:45:26.329Z,99201.64
2023-04-09T20:47:54.648Z,99206.70
2023-04-09T20:50:24.955Z,99208.10
2023-04-09T20:52:53.444Z,99211.61
2023-04-09T20:55:21.475Z,99209.52
2023-04-09T20:57:52.073Z,99214.04
2023-04-09T21:00:24.148Z,99206.73
2023-04-09T21:02:55.421Z,99213.23
2023-04-09T21:05:24.320Z,99211.27
2023-04-09T21:07:55.477Z,99209.14
2023-04-09T21:10:27.351Z,99209.98
2023-04-09T21:12:58.025Z,99210.17
2023-04-09T21:15:28.130Z,99209.45
2023-04-09T21:17:58.277Z,99209.17
2023-04-09T21:20:26.668Z,99205.61
2023-04-09T21:22:54.778Z,99206.52
2023-04-09T21:25:36.349Z,99208.64
2023-04-09T21:28:06.452Z,99209.69
2023-04-09T21:31:03.908Z,99210.42
2023-04-09T21:33:45.649Z,99190.11
2023-04-09T21:36:16.501Z,99211.82
2023-04-09T21:38:46.522Z,99215.75
2023-04-09T21:41:19.426Z,99216.23
2023-04-09T21:43:50.865Z,99215.34
2023-04-09T21:46:19.057Z,99215.95
2023-04-09T21:48:51.146Z,99212.87
2023-04-09T21:51:20.716Z,99212.95
2023-04-09T21:53:49.737Z,99215.11
2023-04-09T21:56:18.028Z,99211.36
2023-04-09T21:58:47.706Z,99211.09
2023-04-09T22:01:28.161Z,99211.69
2023-04-09T22:04:01.837Z,99213.83
2023-04-09T22:06:33.149Z,99218.46
2023-04-09T22:09:06.688Z,99218.26
2023-04-09T22:11:35.256Z,99219.55
2023-04-09T22:14:05.873Z,99219.47
2023-04-09T22:16:38.741Z,99219.39
2023-04-09T22:19:09.948Z,99218.07
2023-04-09T22:21:38.055Z,99219.65
2023-04-09T22:24:19.334Z,99216.68
2023-04-09T22:26:49.717Z,99218.39
2023-04-09T22:29:18.135Z,99216.06
2023-04-09T22:31:50.035Z,99216.33
2023-04-09T22:34:21.926Z,99214.00
2023-04-09T22:37:03.284Z,99213.59
2023-04-09T22:39:31.662Z,99215.98
2023-04-09T22:41:59.897Z,99220.44
2023-04-09T22:44:27.952Z,99219.34
2023-04-09T22:46:56.067Z,99220.02
2023-04-09T22:49:24.117Z,99219.88
2023-04-09T22:51:52.152Z,99222.54
2023-04-09T22:54:20.513Z,99222.05
2023-04-09T22:56:49.028Z,99220.22
2023-04-09T22:59:17.458Z,99224.60
2023-04-09T23:01:45.454Z,99221.68
2023-04-09T23:04:13.572Z,99220.41
2023-04-09T23:06:41.860Z,99216.48
2023-04-09T23:09:09.843Z,99215.31
2023-04-09T23:11:37.927Z,99214.34
2023-04-09T23:14:06.008Z,99210.79
2023-04-09T23:16:34.077Z,99215.92
2023-04-09T23:19:02.091Z,99212.32
2023-04-09T23:21:30.041Z,99209.71
2023-04-09T23:23:57.923Z,99206.84
2023-04-09T23:26:25.926Z,99213.70
2023-04-09T23:28:54.518Z,99217.60
2023-04-09T23:31:22.980Z,99215.08
2023-04-09T23:33:52.141Z,99219.66
2023-04-09T23:36:20.568Z,99211.81
2023-04-09T23:38:48.531Z,99210.53
2023-04-09T23:41:16.483Z,99203.67
2023-04-09T23:43:44.432Z,99199.36
2023-04-09T23:46:12.404Z,99195.02
2023-04-09T23:48:40.537Z,99195.75
2023-04-09T23:51:08.521Z,99193.34
2023-04-09T23:53:36.489Z,99193.47
2023-04-09T23:56:05.737Z,99188.84
2023-04-09T23:58:33.605Z,99186.10
